Airfield :







YOU CAN JOIN US ON...

 
LOGIN :

Register | Disclaimer

   EN    FR    IT 

 









Legend :    VFR   Marginal VFR   IFR   Intensive IFR   Very Intensive IFR
Visi :
Ceiling :
>= 8 km
>= 3000ft
5 to 8 km
1000 to 3000 ft
1500m to 5 km
500 to 1000 ft
800 to 1500m
200 to 500 ft
< 800m
< 200 ft
Symbols :   Thunderstorms  Fog  Heavy snow  Heavy precipitations  Wind > 20 kt






- Airport Elevation : 40 ft
- IATA code : YRF


CYCA - Cartwright

CURRENT METAR :
  • 200200Z AUTO 19009KT 9SM CLR M19/M25 A2988 RMK SLP122

EXPIRED METARs :
  • 200100Z AUTO 21010G17KT 9SM BKN230 M18/M24 A2989 RMK SLP126
  • 200000Z AUTO 21010G16KT 9SM CLR M18/M24 A2990 RMK SLP130

TAF TAF CYCA
Valid from the 20 at 02:00 until the 20 at 14:00 UTC


200138Z 2002/2014 21010KT P6SM SCT100 BKN230
BECMG 2004/2006 23006KT RMK FCST BASED ON AUTO OBS. NXT FCST BY 200800Z



MET'MAP, your aeronautical weather chart ! - Copyright ORBIFLY December 2007 - Disclaimer

ORBIFLY MET'MAP TEAM :

Programming & Development : Alexandra Zaïnal
Concept & original design : Baudouin d'Aumeries
Assistance for programming : Marc-Olivier Méhu
Technical & hardware support : Manuel Goepfert

Contact : metmap@orbifly.com




SOURCES & CREDITS :

   NOAA